createdAt,value
2019-05-26T00:01:42.000Z,98400
2019-05-26T00:03:05.000Z,98399
2019-05-26T00:05:07.000Z,98397
2019-05-26T00:06:29.000Z,98395
2019-05-26T00:08:30.000Z,98392
2019-05-26T00:09:52.000Z,98393
2019-05-26T00:11:53.000Z,98395
2019-05-26T00:13:15.000Z,98396
2019-05-26T00:15:18.000Z,98397
2019-05-26T00:16:40.000Z,98393
2019-05-26T00:18:43.000Z,98391
2019-05-26T00:20:05.000Z,98390
2019-05-26T00:22:08.000Z,98387
2019-05-26T00:23:34.000Z,98384
2019-05-26T00:25:36.000Z,98380
2019-05-26T00:27:00.000Z,98379
2019-05-26T00:29:02.000Z,98378
2019-05-26T00:30:24.000Z,98378
2019-05-26T00:32:27.000Z,98379
2019-05-26T00:33:52.000Z,98381
2019-05-26T00:35:56.000Z,98383
2019-05-26T00:37:18.000Z,98382
2019-05-26T00:39:19.000Z,98382
2019-05-26T00:40:44.000Z,98381
2019-05-26T00:42:47.000Z,98378
2019-05-26T00:44:13.000Z,98376
2019-05-26T00:46:15.000Z,98375
2019-05-26T00:47:38.000Z,98375
2019-05-26T00:49:41.000Z,98374
2019-05-26T00:51:03.000Z,98374
2019-05-26T00:53:06.000Z,98375
2019-05-26T00:54:32.000Z,98374
2019-05-26T00:56:35.000Z,98374
2019-05-26T00:57:59.000Z,98374
2019-05-26T01:00:02.000Z,98377
2019-05-26T01:01:26.000Z,98377
2019-05-26T01:05:16.000Z,98379
2019-05-26T01:06:38.000Z,98383
2019-05-26T01:08:39.000Z,98385
2019-05-26T01:10:01.000Z,98387
2019-05-26T01:12:02.000Z,98388
2019-05-26T01:13:24.000Z,98389
2019-05-26T01:15:24.000Z,98390
2019-05-26T01:16:46.000Z,98391
2019-05-26T01:18:47.000Z,98396
2019-05-26T01:20:09.000Z,98399
2019-05-26T01:22:10.000Z,98399
2019-05-26T01:23:33.000Z,98397
2019-05-26T01:25:34.000Z,98397
2019-05-26T01:26:56.000Z,98399
2019-05-26T01:28:58.000Z,98397
2019-05-26T01:30:22.000Z,98396
2019-05-26T01:32:23.000Z,98396
2019-05-26T01:33:45.000Z,98395
2019-05-26T01:35:46.000Z,98395
2019-05-26T01:37:08.000Z,98393
2019-05-26T01:39:09.000Z,98395
2019-05-26T01:40:32.000Z,98393
2019-05-26T01:42:33.000Z,98393
2019-05-26T01:43:56.000Z,98391
2019-05-26T01:45:58.000Z,98391
2019-05-26T01:47:23.000Z,98394
2019-05-26T01:49:25.000Z,98396
2019-05-26T01:50:47.000Z,98395
2019-05-26T01:52:48.000Z,98396
2019-05-26T01:54:12.000Z,98397
2019-05-26T01:56:17.000Z,98396
2019-05-26T01:57:38.000Z,98397
2019-05-26T01:59:39.000Z,98397
2019-05-26T02:01:02.000Z,98397
2019-05-26T02:03:04.000Z,98399
2019-05-26T02:04:27.000Z,98400
2019-05-26T02:06:28.000Z,98402
2019-05-26T02:07:50.000Z,98399
2019-05-26T02:09:51.000Z,98399
2019-05-26T02:11:15.000Z,98398
2019-05-26T02:13:16.000Z,98396
2019-05-26T02:14:39.000Z,98392
2019-05-26T02:16:40.000Z,98389
2019-05-26T02:18:04.000Z,98390
2019-05-26T02:20:05.000Z,98388
2019-05-26T02:21:29.000Z,98387
2019-05-26T02:23:32.000Z,98387
2019-05-26T02:24:55.000Z,98386
2019-05-26T02:26:57.000Z,98386
2019-05-26T02:28:20.000Z,98384
2019-05-26T02:30:22.000Z,98382
2019-05-26T02:31:45.000Z,98381
2019-05-26T02:33:46.000Z,98378
2019-05-26T02:35:08.000Z,98378
2019-05-26T02:37:13.000Z,98379
2019-05-26T02:38:39.000Z,98378
2019-05-26T02:41:05.000Z,98379
2019-05-26T02:42:29.000Z,98380
2019-05-26T02:44:30.000Z,98379
2019-05-26T02:45:54.000Z,98380
2019-05-26T02:47:57.000Z,98383
2019-05-26T02:49:20.000Z,98384
2019-05-26T02:51:24.000Z,98384
2019-05-26T02:52:47.000Z,98381
2019-05-26T02:54:50.000Z,98380
2019-05-26T02:56:12.000Z,98380
2019-05-26T02:58:14.000Z,98380
2019-05-26T02:59:37.000Z,98381
2019-05-26T03:01:38.000Z,98382
2019-05-26T03:03:24.000Z,98385
2019-05-26T03:05:28.000Z,98385
2019-05-26T03:06:51.000Z,98383
2019-05-26T03:08:52.000Z,98382
2019-05-26T03:10:15.000Z,98380
2019-05-26T03:12:22.000Z,98379
2019-05-26T03:13:45.000Z,98380
2019-05-26T03:15:48.000Z,98379
2019-05-26T03:17:13.000Z,98378
2019-05-26T03:19:15.000Z,98378
2019-05-26T03:20:38.000Z,98377
2019-05-26T03:22:44.000Z,98376
2019-05-26T03:24:12.000Z,98376
2019-05-26T03:26:14.000Z,98378
2019-05-26T03:27:38.000Z,98380
2019-05-26T03:31:17.000Z,98381
2019-05-26T03:31:50.000Z,98381
2019-05-26T03:33:17.000Z,98381
2019-05-26T03:35:23.000Z,98382
2019-05-26T03:38:46.000Z,98384
2019-05-26T03:40:08.000Z,98385
2019-05-26T03:42:10.000Z,98384
2019-05-26T03:43:32.000Z,98384
2019-05-26T03:45:33.000Z,98385
2019-05-26T03:46:55.000Z,98384
2019-05-26T03:48:59.000Z,98383
2019-05-26T03:50:21.000Z,98383
2019-05-26T03:52:22.000Z,98381
2019-05-26T03:53:44.000Z,98381
2019-05-26T03:55:46.000Z,98378
2019-05-26T03:57:08.000Z,98379
2019-05-26T03:59:09.000Z,98376
2019-05-26T04:00:32.000Z,98376
2019-05-26T04:02:33.000Z,98378
2019-05-26T04:03:55.000Z,98380
2019-05-26T04:05:56.000Z,98382
2019-05-26T04:07:19.000Z,98385
2019-05-26T04:09:20.000Z,98385
2019-05-26T04:10:42.000Z,98383
2019-05-26T04:12:45.000Z,98383
2019-05-26T04:14:09.000Z,98385
2019-05-26T04:16:11.000Z,98385
2019-05-26T04:17:33.000Z,98384
2019-05-26T04:19:35.000Z,98382
2019-05-26T04:20:58.000Z,98381
2019-05-26T04:22:59.000Z,98380
2019-05-26T04:24:21.000Z,98378
2019-05-26T04:26:22.000Z,98378
2019-05-26T04:27:44.000Z,98377
2019-05-26T04:29:45.000Z,98376
2019-05-26T04:31:08.000Z,98378
2019-05-26T04:33:12.000Z,98379
2019-05-26T04:34:35.000Z,98378
2019-05-26T04:36:36.000Z,98377
2019-05-26T04:38:00.000Z,98377
2019-05-26T04:40:03.000Z,98376
2019-05-26T04:41:49.000Z,98378
2019-05-26T04:43:52.000Z,98379
2019-05-26T04:45:14.000Z,98380
2019-05-26T04:47:16.000Z,98380
2019-05-26T04:48:38.000Z,98382
2019-05-26T04:50:39.000Z,98381
2019-05-26T04:52:02.000Z,98383
2019-05-26T04:54:05.000Z,98386
2019-05-26T04:55:28.000Z,98389
2019-05-26T04:57:30.000Z,98389
2019-05-26T04:58:52.000Z,98389
2019-05-26T05:00:55.000Z,98387
2019-05-26T05:02:19.000Z,98389
2019-05-26T05:04:22.000Z,98389
2019-05-26T05:05:46.000Z,98389
2019-05-26T05:07:48.000Z,98386
2019-05-26T05:09:11.000Z,98386
2019-05-26T05:11:12.000Z,98388
2019-05-26T05:12:37.000Z,98384
2019-05-26T05:14:37.000Z,98383
2019-05-26T05:16:01.000Z,98383
2019-05-26T05:18:04.000Z,98383
2019-05-26T05:19:29.000Z,98384
2019-05-26T05:21:30.000Z,98384
2019-05-26T05:22:53.000Z,98385
2019-05-26T05:24:56.000Z,98386
2019-05-26T05:26:19.000Z,98387
2019-05-26T05:28:22.000Z,98385
2019-05-26T05:29:45.000Z,98387
2019-05-26T05:31:49.000Z,98390
2019-05-26T05:33:11.000Z,98391
2019-05-26T05:35:12.000Z,98391
2019-05-26T05:36:35.000Z,98393
2019-05-26T05:38:39.000Z,98396
2019-05-26T05:40:02.000Z,98396
2019-05-26T05:42:04.000Z,98394
2019-05-26T05:43:27.000Z,98395
2019-05-26T05:45:31.000Z,98392
2019-05-26T05:46:55.000Z,98390
2019-05-26T05:48:56.000Z,98390
2019-05-26T05:50:21.000Z,98389
2019-05-26T05:52:27.000Z,98388
2019-05-26T05:53:51.000Z,98386
2019-05-26T05:55:52.000Z,98384
2019-05-26T05:57:15.000Z,98383
2019-05-26T05:59:16.000Z,98383
2019-05-26T06:00:44.000Z,98383
2019-05-26T06:02:49.000Z,98381
2019-05-26T06:04:17.000Z,98380
2019-05-26T06:06:20.000Z,98379
2019-05-26T06:07:50.000Z,98378
2019-05-26T06:09:56.000Z,98375
2019-05-26T06:11:20.000Z,98375
2019-05-26T06:13:26.000Z,98373
2019-05-26T06:14:53.000Z,98370
2019-05-26T06:16:57.000Z,98372
2019-05-26T06:18:21.000Z,98370
2019-05-26T06:20:26.000Z,98368
2019-05-26T06:21:54.000Z,98367
2019-05-26T06:24:00.000Z,98366
2019-05-26T06:25:28.000Z,98368
2019-05-26T06:27:33.000Z,98368
2019-05-26T06:28:59.000Z,98368
2019-05-26T06:31:03.000Z,98367
2019-05-26T06:32:28.000Z,98367
2019-05-26T06:34:34.000Z,98367
2019-05-26T06:36:03.000Z,98368
2019-05-26T06:38:04.000Z,98366
2019-05-26T06:39:32.000Z,98367
2019-05-26T06:41:36.000Z,98369
2019-05-26T06:43:01.000Z,98366
2019-05-26T06:45:06.000Z,98364
2019-05-26T06:46:33.000Z,98363
2019-05-26T06:48:40.000Z,98366
2019-05-26T06:50:04.000Z,98364
2019-05-26T06:52:14.000Z,98359
2019-05-26T06:53:44.000Z,98360
2019-05-26T06:55:48.000Z,98362
2019-05-26T06:57:16.000Z,98362
2019-05-26T06:59:22.000Z,98356
2019-05-26T07:00:50.000Z,98359
2019-05-26T07:02:56.000Z,98359
2019-05-26T07:04:28.000Z,98361
2019-05-26T07:06:33.000Z,98359
2019-05-26T07:07:56.000Z,98356
2019-05-26T07:10:04.000Z,98359
2019-05-26T07:11:32.000Z,98358
2019-05-26T07:14:00.000Z,98359
2019-05-26T07:15:28.000Z,98358
2019-05-26T07:17:32.000Z,98361
2019-05-26T07:19:09.000Z,98361
2019-05-26T07:21:21.000Z,98362
2019-05-26T07:22:55.000Z,98355
2019-05-26T07:25:05.000Z,98351
2019-05-26T07:26:34.000Z,98351
2019-05-26T07:28:42.000Z,98347
2019-05-26T07:30:16.000Z,98353
2019-05-26T07:32:26.000Z,98347
2019-05-26T07:33:58.000Z,98346
2019-05-26T07:36:07.000Z,98345
2019-05-26T07:37:31.000Z,98348
2019-05-26T07:39:41.000Z,98347
2019-05-26T07:41:12.000Z,98345
2019-05-26T07:43:21.000Z,98345
2019-05-26T07:44:48.000Z,98346
2019-05-26T07:46:55.000Z,98348
2019-05-26T07:48:24.000Z,98345
2019-05-26T07:50:34.000Z,98342
2019-05-26T07:52:02.000Z,98341
2019-05-26T07:54:12.000Z,98344
2019-05-26T07:55:51.000Z,98342
2019-05-26T07:58:01.000Z,98343
2019-05-26T07:59:32.000Z,98347
2019-05-26T08:03:14.000Z,98349
2019-05-26T08:04:02.000Z,98348
2019-05-26T08:05:32.000Z,98343
2019-05-26T08:09:16.000Z,98338
2019-05-26T08:10:11.000Z,98340
2019-05-26T08:11:43.000Z,98340
2019-05-26T08:15:28.000Z,98333
2019-05-26T08:17:17.000Z,98330
2019-05-26T08:18:40.000Z,98329
2019-05-26T08:20:41.000Z,98325
2019-05-26T08:22:03.000Z,98326
2019-05-26T08:24:04.000Z,98328
2019-05-26T08:25:26.000Z,98323
2019-05-26T08:27:27.000Z,98327
2019-05-26T08:28:49.000Z,98325
2019-05-26T08:30:50.000Z,98327
2019-05-26T08:32:12.000Z,98328
2019-05-26T08:34:16.000Z,98324
2019-05-26T08:35:38.000Z,98322
2019-05-26T08:37:39.000Z,98321
2019-05-26T08:39:01.000Z,98318
2019-05-26T08:41:02.000Z,98315
2019-05-26T08:42:24.000Z,98316
2019-05-26T08:44:42.000Z,98317
2019-05-26T08:46:04.000Z,98317
2019-05-26T08:48:05.000Z,98313
2019-05-26T08:49:27.000Z,98314
2019-05-26T08:51:28.000Z,98312
2019-05-26T08:52:50.000Z,98313
2019-05-26T08:54:51.000Z,98309
2019-05-26T08:56:13.000Z,98310
2019-05-26T08:58:14.000Z,98310
2019-05-26T08:59:36.000Z,98309
2019-05-26T09:01:37.000Z,98309
2019-05-26T09:03:00.000Z,98315
2019-05-26T09:05:02.000Z,98308
2019-05-26T09:06:24.000Z,98306
2019-05-26T09:08:25.000Z,98305
2019-05-26T09:09:46.000Z,98305
2019-05-26T09:11:48.000Z,98311
2019-05-26T09:13:10.000Z,98306
2019-05-26T09:15:12.000Z,98307
2019-05-26T09:16:37.000Z,98309
2019-05-26T09:18:40.000Z,98312
2019-05-26T09:20:02.000Z,98311
2019-05-26T09:22:03.000Z,98308
2019-05-26T09:23:25.000Z,98310
2019-05-26T09:25:27.000Z,98311
2019-05-26T09:26:52.000Z,98310
2019-05-26T09:28:54.000Z,98309
2019-05-26T09:30:16.000Z,98303
2019-05-26T09:32:17.000Z,98299
2019-05-26T09:33:40.000Z,98297
2019-05-26T09:35:42.000Z,98297
2019-05-26T09:37:05.000Z,98294
2019-05-26T09:39:07.000Z,98294
2019-05-26T09:40:30.000Z,98294
2019-05-26T09:42:32.000Z,98288
2019-05-26T09:43:54.000Z,98285
2019-05-26T09:45:56.000Z,98286
2019-05-26T09:47:18.000Z,98295
2019-05-26T09:49:21.000Z,98290
2019-05-26T09:50:45.000Z,98285
2019-05-26T09:52:47.000Z,98282
2019-05-26T09:54:10.000Z,98283
2019-05-26T09:56:15.000Z,98279
2019-05-26T09:57:39.000Z,98276
2019-05-26T09:59:41.000Z,98278
2019-05-26T10:01:05.000Z,98278
2019-05-26T10:03:09.000Z,98285
2019-05-26T10:04:32.000Z,98285
2019-05-26T10:06:35.000Z,98285
2019-05-26T10:08:00.000Z,98280
2019-05-26T10:10:02.000Z,98271
2019-05-26T10:11:28.000Z,98278
2019-05-26T10:13:31.000Z,98279
2019-05-26T10:14:55.000Z,98281
2019-05-26T10:16:56.000Z,98283
2019-05-26T10:18:19.000Z,98280
2019-05-26T10:20:21.000Z,98274
2019-05-26T10:21:46.000Z,98273
2019-05-26T10:23:49.000Z,98271
2019-05-26T10:25:18.000Z,98268
2019-05-26T10:27:23.000Z,98268
2019-05-26T10:28:45.000Z,98266
2019-05-26T10:30:52.000Z,98270
2019-05-26T10:32:16.000Z,98275
2019-05-26T10:34:18.000Z,98268
2019-05-26T10:35:43.000Z,98264
2019-05-26T10:37:46.000Z,98265
2019-05-26T10:39:16.000Z,98267
2019-05-26T10:41:21.000Z,98267
2019-05-26T10:42:45.000Z,98267
2019-05-26T10:44:49.000Z,98260
2019-05-26T10:46:16.000Z,98260
2019-05-26T10:48:22.000Z,98258
2019-05-26T10:49:45.000Z,98259
2019-05-26T10:51:49.000Z,98255
2019-05-26T10:53:15.000Z,98246
2019-05-26T10:55:19.000Z,98247
2019-05-26T10:56:44.000Z,98243
2019-05-26T10:58:51.000Z,98243
2019-05-26T11:00:22.000Z,98245
2019-05-26T11:02:26.000Z,98244
2019-05-26T11:03:48.000Z,98239
2019-05-26T11:05:51.000Z,98237
2019-05-26T11:07:14.000Z,98232
2019-05-26T11:09:21.000Z,98226
2019-05-26T11:10:52.000Z,98218
2019-05-26T11:12:57.000Z,98230
2019-05-26T11:14:22.000Z,98229
2019-05-26T11:16:26.000Z,98225
2019-05-26T11:17:53.000Z,98231
2019-05-26T11:19:54.000Z,98224
2019-05-26T11:21:21.000Z,98222
2019-05-26T11:23:23.000Z,98223
2019-05-26T11:24:49.000Z,98221
2019-05-26T11:26:54.000Z,98214
2019-05-26T11:28:36.000Z,98211
2019-05-26T11:30:43.000Z,98216
2019-05-26T11:32:12.000Z,98211
2019-05-26T11:34:16.000Z,98211
2019-05-26T11:35:46.000Z,98203
2019-05-26T11:37:54.000Z,98208
2019-05-26T11:39:22.000Z,98200
2019-05-26T11:41:28.000Z,98198
2019-05-26T11:43:01.000Z,98194
2019-05-26T11:45:23.000Z,98191
2019-05-26T11:46:52.000Z,98188
2019-05-26T11:49:00.000Z,98191
2019-05-26T11:50:29.000Z,98176
2019-05-26T11:52:36.000Z,98183
2019-05-26T11:54:06.000Z,98179
2019-05-26T11:56:12.000Z,98181
2019-05-26T11:57:44.000Z,98176
2019-05-26T11:59:53.000Z,98177
2019-05-26T12:01:20.000Z,98174
2019-05-26T12:03:30.000Z,98171
2019-05-26T12:05:00.000Z,98170
2019-05-26T12:07:10.000Z,98172
2019-05-26T12:08:39.000Z,98173
2019-05-26T12:10:48.000Z,98167
2019-05-26T12:12:19.000Z,98167
2019-05-26T12:14:28.000Z,98162
2019-05-26T12:16:07.000Z,98163
2019-05-26T12:18:16.000Z,98164
2019-05-26T12:19:46.000Z,98161
2019-05-26T12:22:01.000Z,98153
2019-05-26T12:23:28.000Z,98149
2019-05-26T12:25:40.000Z,98144
2019-05-26T12:27:09.000Z,98147
2019-05-26T12:29:17.000Z,98142
2019-05-26T12:30:46.000Z,98147
2019-05-26T12:32:55.000Z,98142
2019-05-26T12:34:24.000Z,98136
2019-05-26T12:36:31.000Z,98141
2019-05-26T12:38:01.000Z,98139
2019-05-26T12:40:11.000Z,98140
2019-05-26T12:41:44.000Z,98141
2019-05-26T12:43:53.000Z,98141
2019-05-26T12:45:28.000Z,98146
2019-05-26T12:47:39.000Z,98143
2019-05-26T12:49:11.000Z,98140
2019-05-26T12:51:23.000Z,98133
2019-05-26T12:52:54.000Z,98131
2019-05-26T12:55:04.000Z,98132
2019-05-26T12:56:41.000Z,98128
2019-05-26T12:58:55.000Z,98130
2019-05-26T13:00:27.000Z,98126
2019-05-26T13:02:37.000Z,98132
2019-05-26T13:04:07.000Z,98129
2019-05-26T13:07:34.000Z,98124
2019-05-26T13:08:57.000Z,98121
2019-05-26T13:10:58.000Z,98123
2019-05-26T13:12:20.000Z,98124
2019-05-26T13:14:21.000Z,98121
2019-05-26T13:15:44.000Z,98121
2019-05-26T13:17:46.000Z,98129
2019-05-26T13:19:08.000Z,98124
2019-05-26T13:21:09.000Z,98123
2019-05-26T13:22:31.000Z,98124
2019-05-26T13:24:33.000Z,98124
2019-05-26T13:25:56.000Z,98123
2019-05-26T13:27:58.000Z,98117
2019-05-26T13:29:20.000Z,98115
2019-05-26T13:31:20.000Z,98113
2019-05-26T13:32:43.000Z,98123
2019-05-26T13:34:44.000Z,98117
2019-05-26T13:36:06.000Z,98117
2019-05-26T13:38:07.000Z,98105
2019-05-26T13:39:30.000Z,98104
2019-05-26T13:41:31.000Z,98103
2019-05-26T13:42:54.000Z,98107
2019-05-26T13:44:56.000Z,98106
2019-05-26T13:46:18.000Z,98104
2019-05-26T13:48:19.000Z,98104
2019-05-26T13:49:43.000Z,98103
2019-05-26T13:51:45.000Z,98099
2019-05-26T13:53:07.000Z,98102
2019-05-26T13:55:10.000Z,98098
2019-05-26T13:56:32.000Z,98097
2019-05-26T13:58:33.000Z,98097
2019-05-26T13:59:56.000Z,98097
2019-05-26T14:01:57.000Z,98095
2019-05-26T14:03:19.000Z,98096
2019-05-26T14:05:20.000Z,98097
2019-05-26T14:06:42.000Z,98094
2019-05-26T14:08:43.000Z,98095
2019-05-26T14:10:05.000Z,98100
2019-05-26T14:12:06.000Z,98097
2019-05-26T14:13:29.000Z,98095
2019-05-26T14:15:29.000Z,98093
2019-05-26T14:17:00.000Z,98089
2019-05-26T14:19:02.000Z,98085
2019-05-26T14:20:24.000Z,98081
2019-05-26T14:22:26.000Z,98080
2019-05-26T14:23:48.000Z,98080
2019-05-26T14:25:51.000Z,98075
2019-05-26T14:27:16.000Z,98074
2019-05-26T14:29:18.000Z,98073
2019-05-26T14:30:40.000Z,98069
2019-05-26T14:32:41.000Z,98063
2019-05-26T14:34:03.000Z,98058
2019-05-26T14:36:04.000Z,98059
2019-05-26T14:37:28.000Z,98056
2019-05-26T14:39:31.000Z,98060
2019-05-26T14:40:55.000Z,98054
2019-05-26T14:42:56.000Z,98062
2019-05-26T14:44:18.000Z,98058
2019-05-26T14:46:20.000Z,98058
2019-05-26T14:47:43.000Z,98058
2019-05-26T14:49:48.000Z,98053
2019-05-26T14:51:12.000Z,98052
2019-05-26T15:00:44.000Z,98042
2019-05-26T15:01:17.000Z,98041
2019-05-26T15:02:39.000Z,98038
2019-05-26T15:04:40.000Z,98035
2019-05-26T15:06:03.000Z,98037
2019-05-26T15:08:07.000Z,98035
2019-05-26T15:09:29.000Z,98027
2019-05-26T15:11:30.000Z,98019
2019-05-26T15:12:52.000Z,98020
2019-05-26T15:14:53.000Z,98025
2019-05-26T15:16:16.000Z,98021
2019-05-26T15:18:17.000Z,98023
2019-05-26T15:19:39.000Z,98026
2019-05-26T15:21:40.000Z,98021
2019-05-26T15:23:02.000Z,98020
2019-05-26T15:25:03.000Z,98022
2019-05-26T15:26:26.000Z,98020
2019-05-26T15:28:28.000Z,98025
2019-05-26T15:29:51.000Z,98021
2019-05-26T15:31:52.000Z,98022
2019-05-26T15:33:14.000Z,98021
2019-05-26T15:35:16.000Z,98017
2019-05-26T15:36:38.000Z,98011
2019-05-26T15:38:39.000Z,98009
2019-05-26T15:40:05.000Z,98012
2019-05-26T15:42:07.000Z,98012
2019-05-26T15:43:33.000Z,98008
2019-05-26T15:45:34.000Z,98010
2019-05-26T15:46:58.000Z,98004
2019-05-26T15:48:59.000Z,98001
2019-05-26T15:50:23.000Z,98001
2019-05-26T15:52:24.000Z,98000
2019-05-26T15:53:47.000Z,97998
2019-05-26T15:55:48.000Z,97992
2019-05-26T15:57:10.000Z,97991
2019-05-26T15:59:11.000Z,97990
2019-05-26T16:00:33.000Z,97993
2019-05-26T16:02:34.000Z,97989
2019-05-26T16:03:57.000Z,97994
2019-05-26T16:05:58.000Z,97992
2019-05-26T16:07:21.000Z,97987
2019-05-26T16:09:22.000Z,97979
2019-05-26T16:10:45.000Z,97977
2019-05-26T16:12:47.000Z,97979
2019-05-26T16:14:09.000Z,97975
2019-05-26T16:16:11.000Z,97972
2019-05-26T16:17:32.000Z,97973
2019-05-26T16:19:33.000Z,97966
2019-05-26T16:20:55.000Z,97969
2019-05-26T16:23:07.000Z,97973
2019-05-26T16:24:32.000Z,97974
2019-05-26T16:26:34.000Z,97974
2019-05-26T16:27:58.000Z,97977
2019-05-26T16:30:02.000Z,97974
2019-05-26T16:31:24.000Z,97973
2019-05-26T16:33:28.000Z,97970
2019-05-26T16:34:52.000Z,97970
2019-05-26T16:36:55.000Z,97968
2019-05-26T16:38:18.000Z,97968
2019-05-26T16:40:21.000Z,97967
2019-05-26T16:41:44.000Z,97967
2019-05-26T16:43:47.000Z,97965
2019-05-26T16:45:09.000Z,97964
2019-05-26T16:47:14.000Z,97963
2019-05-26T16:48:36.000Z,97962
2019-05-26T16:50:40.000Z,97959
2019-05-26T16:52:03.000Z,97960
2019-05-26T16:54:05.000Z,97957
2019-05-26T16:55:28.000Z,97953
2019-05-26T16:57:32.000Z,97950
2019-05-26T16:58:55.000Z,97949
2019-05-26T17:01:00.000Z,97946
2019-05-26T17:02:24.000Z,97942
2019-05-26T17:04:27.000Z,97943
2019-05-26T17:05:55.000Z,97942
2019-05-26T17:08:13.000Z,97942
2019-05-26T17:09:37.000Z,97945
2019-05-26T17:11:41.000Z,97944
2019-05-26T17:13:03.000Z,97945
2019-05-26T17:15:07.000Z,97942
2019-05-26T17:16:30.000Z,97941
2019-05-26T17:18:40.000Z,97938
2019-05-26T17:20:02.000Z,97937
2019-05-26T17:22:02.000Z,97937
2019-05-26T17:23:25.000Z,97937
2019-05-26T17:25:26.000Z,97938
2019-05-26T17:26:53.000Z,97938
2019-05-26T17:28:55.000Z,97937
2019-05-26T17:30:21.000Z,97939
2019-05-26T17:32:28.000Z,97940
2019-05-26T17:33:51.000Z,97934
2019-05-26T17:35:58.000Z,97931
2019-05-26T17:37:22.000Z,97931
2019-05-26T17:39:24.000Z,97930
2019-05-26T17:40:51.000Z,97933
2019-05-26T17:43:02.000Z,97933
2019-05-26T17:44:30.000Z,97933
2019-05-26T17:46:34.000Z,97933
2019-05-26T17:47:57.000Z,97933
2019-05-26T17:49:58.000Z,97931
2019-05-26T17:51:24.000Z,97930
2019-05-26T17:53:29.000Z,97928
2019-05-26T17:54:53.000Z,97927
2019-05-26T17:56:57.000Z,97928
2019-05-26T17:58:21.000Z,97927
2019-05-26T18:00:28.000Z,97926
2019-05-26T18:01:56.000Z,97926
2019-05-26T18:04:03.000Z,97922
2019-05-26T18:05:29.000Z,97921
2019-05-26T18:07:35.000Z,97919
2019-05-26T18:09:03.000Z,97922
2019-05-26T18:11:09.000Z,97922
2019-05-26T18:12:33.000Z,97918
2019-05-26T18:14:43.000Z,97915
2019-05-26T18:16:16.000Z,97915
2019-05-26T18:19:55.000Z,97913
2019-05-26T18:21:57.000Z,97911
2019-05-26T18:23:19.000Z,97910
2019-05-26T18:25:20.000Z,97911
2019-05-26T18:26:43.000Z,97912
2019-05-26T18:28:44.000Z,97910
2019-05-26T18:30:06.000Z,97909
2019-05-26T18:32:07.000Z,97909
2019-05-26T18:33:29.000Z,97908
2019-05-26T18:35:30.000Z,97910
2019-05-26T18:36:52.000Z,97912
2019-05-26T18:38:53.000Z,97911
2019-05-26T18:40:15.000Z,97911
2019-05-26T18:42:16.000Z,97911
2019-05-26T18:43:38.000Z,97911
2019-05-26T18:45:39.000Z,97909
2019-05-26T18:47:01.000Z,97910
2019-05-26T18:49:02.000Z,97910
2019-05-26T18:50:24.000Z,97909
2019-05-26T18:52:25.000Z,97906
2019-05-26T18:53:47.000Z,97904
2019-05-26T18:55:48.000Z,97902
2019-05-26T18:57:11.000Z,97900
2019-05-26T18:59:12.000Z,97902
2019-05-26T19:00:34.000Z,97902
2019-05-26T19:02:36.000Z,97902
2019-05-26T19:03:59.000Z,97901
2019-05-26T19:06:00.000Z,97901
2019-05-26T19:07:23.000Z,97903
2019-05-26T19:09:26.000Z,97902
2019-05-26T19:10:48.000Z,97902
2019-05-26T19:12:49.000Z,97901
2019-05-26T19:14:11.000Z,97900
2019-05-26T19:16:12.000Z,97901
2019-05-26T19:17:34.000Z,97900
2019-05-26T19:19:37.000Z,97899
2019-05-26T19:20:59.000Z,97898
2019-05-26T19:23:01.000Z,97899
2019-05-26T19:24:23.000Z,97897
2019-05-26T19:26:24.000Z,97896
2019-05-26T19:27:45.000Z,97896
2019-05-26T19:29:46.000Z,97896
2019-05-26T19:31:09.000Z,97897
2019-05-26T19:33:10.000Z,97898
2019-05-26T19:34:33.000Z,97898
2019-05-26T19:36:35.000Z,97900
2019-05-26T19:38:00.000Z,97901
2019-05-26T19:40:00.000Z,97900
2019-05-26T19:41:23.000Z,97903
2019-05-26T19:43:25.000Z,97901
2019-05-26T19:44:49.000Z,97901
2019-05-26T19:46:51.000Z,97901
2019-05-26T19:48:16.000Z,97901
2019-05-26T19:50:18.000Z,97901
2019-05-26T19:51:41.000Z,97902
2019-05-26T19:53:43.000Z,97902
2019-05-26T19:55:12.000Z,97905
2019-05-26T19:57:13.000Z,97903
2019-05-26T19:58:36.000Z,97905
2019-05-26T20:00:39.000Z,97904
2019-05-26T20:02:04.000Z,97903
2019-05-26T20:04:21.000Z,97902
2019-05-26T20:05:44.000Z,97902
2019-05-26T20:07:48.000Z,97903
2019-05-26T20:09:13.000Z,97903
2019-05-26T20:11:16.000Z,97903
2019-05-26T20:12:40.000Z,97902
2019-05-26T20:14:43.000Z,97903
2019-05-26T20:16:05.000Z,97905
2019-05-26T20:18:07.000Z,97905
2019-05-26T20:19:31.000Z,97905
2019-05-26T20:21:33.000Z,97905
2019-05-26T20:22:58.000Z,97905
2019-05-26T20:24:59.000Z,97908
2019-05-26T20:26:22.000Z,97906
2019-05-26T20:28:23.000Z,97907
2019-05-26T20:29:47.000Z,97907
2019-05-26T20:31:54.000Z,97907
2019-05-26T20:33:18.000Z,97906
2019-05-26T20:35:23.000Z,97906
2019-05-26T20:36:48.000Z,97904
2019-05-26T20:38:49.000Z,97905
2019-05-26T20:40:13.000Z,97904
2019-05-26T20:42:18.000Z,97903
2019-05-26T20:43:40.000Z,97903
2019-05-26T20:45:43.000Z,97901
2019-05-26T20:47:09.000Z,97901
2019-05-26T20:49:15.000Z,97900
2019-05-26T20:50:41.000Z,97899
2019-05-26T20:52:44.000Z,97896
2019-05-26T20:54:14.000Z,97895
2019-05-26T20:56:19.000Z,97894
2019-05-26T20:57:46.000Z,97895
2019-05-26T20:59:47.000Z,97897
2019-05-26T21:01:12.000Z,97897
2019-05-26T21:03:17.000Z,97893
2019-05-26T21:04:42.000Z,97892
2019-05-26T21:06:44.000Z,97890
2019-05-26T21:08:10.000Z,97889
2019-05-26T21:10:14.000Z,97888
2019-05-26T21:11:37.000Z,97886
2019-05-26T21:13:41.000Z,97887
2019-05-26T21:15:09.000Z,97888
2019-05-26T21:17:11.000Z,97886
2019-05-26T21:18:34.000Z,97884
2019-05-26T21:20:39.000Z,97882
2019-05-26T21:22:06.000Z,97881
2019-05-26T21:24:09.000Z,97880
2019-05-26T21:25:35.000Z,97880
2019-05-26T21:27:36.000Z,97876
2019-05-26T21:29:03.000Z,97874
2019-05-26T21:31:06.000Z,97873
2019-05-26T21:32:33.000Z,97876
2019-05-26T21:34:40.000Z,97877
2019-05-26T21:36:10.000Z,97876
2019-05-26T21:38:16.000Z,97877
2019-05-26T21:39:45.000Z,97879
2019-05-26T21:41:52.000Z,97879
2019-05-26T21:43:18.000Z,97877
2019-05-26T21:45:26.000Z,97875
2019-05-26T21:46:50.000Z,97875
2019-05-26T21:48:56.000Z,97872
2019-05-26T21:50:24.000Z,97869
2019-05-26T21:52:30.000Z,97866
2019-05-26T21:53:58.000Z,97863
2019-05-26T21:56:06.000Z,97862
2019-05-26T21:57:33.000Z,97860
2019-05-26T21:59:44.000Z,97858
2019-05-26T22:01:15.000Z,97858
2019-05-26T22:03:22.000Z,97859
2019-05-26T22:04:53.000Z,97860
2019-05-26T22:07:03.000Z,97858
2019-05-26T22:08:32.000Z,97857
2019-05-26T22:10:41.000Z,97855
2019-05-26T22:12:12.000Z,97855
2019-05-26T22:14:17.000Z,97854
2019-05-26T22:15:48.000Z,97852
2019-05-26T22:18:02.000Z,97853
2019-05-26T22:19:32.000Z,97852
2019-05-26T22:21:42.000Z,97850
2019-05-26T22:23:12.000Z,97851
2019-05-26T22:25:20.000Z,97847
2019-05-26T22:26:55.000Z,97844
2019-05-26T22:29:04.000Z,97842
2019-05-26T22:30:30.000Z,97842
2019-05-26T22:32:33.000Z,97840
2019-05-26T22:33:58.000Z,97839
2019-05-26T22:36:09.000Z,97837
2019-05-26T22:37:37.000Z,97835
2019-05-26T22:39:48.000Z,97834
2019-05-26T22:41:13.000Z,97834